Time;durP1;ratioP1;P1;durP2;ratioP2;P2;SDS_P1;SDS_P2;PMS_P1;PMS_P2;Temp;Humidity;BMP_temperature;BMP_pressure;BME280_temperature;BME280_humidity;BME280_pressure;Samples;Min_cycle;Max_cycle;Signal;HPM_P1;HPM_P2
2022/01/14 00:02:06;;;;;;;39.90;18.80;;;;;;;-0.76;47.32;96468.50;5011874;28;20225;-65
2022/01/14 00:04:33;;;;;;;42.63;21.05;;;;;;;-0.87;47.90;96445.56;5011147;28;20194;-62
2022/01/14 00:07:00;;;;;;;46.63;21.70;;;;;;;-0.15;46.96;96455.63;5012260;28;20206;-64
2022/01/14 00:09:27;;;;;;;50.38;21.65;;;;;;;-0.66;47.32;96427.25;5011152;28;20198;-62
2022/01/14 00:11:58;;;;;;;46.72;20.50;;;;;;;-1.04;48.39;96456.66;5012020;28;20207;-64
2022/01/14 00:17:14;;;;;;;104.07;39.58;;;;;;;-0.29;46.61;96461.28;5012456;28;20194;-64
2022/01/14 00:19:43;;;;;;;47.88;22.83;;;;;;;-0.58;47.24;96471.03;5010799;28;20604;-64
2022/01/14 00:22:14;;;;;;;44.00;21.73;;;;;;;-0.09;46.44;96453.22;5011029;28;21010;-63
2022/01/14 00:33:16;;;;;;;43.90;20.30;;;;;;;0.00;46.20;96477.28;5025493;28;20212;-63
2022/01/14 00:35:43;;;;;;;36.20;18.92;;;;;;;-0.28;46.27;96483.53;5011414;28;20554;-64
2022/01/14 00:38:11;;;;;;;43.72;20.48;;;;;;;0.03;45.84;96482.13;5010316;28;20284;-64
2022/01/14 00:40:38;;;;;;;40.72;20.52;;;;;;;-0.05;45.82;96489.81;5010924;28;20209;-63
2022/01/14 00:43:05;;;;;;;39.65;19.92;;;;;;;-0.06;45.84;96465.00;5010212;28;20728;-63
2022/01/14 00:45:32;;;;;;;46.55;20.77;;;;;;;0.07;45.68;96472.31;5010719;28;20206;-65
2022/01/14 00:48:01;;;;;;;44.13;21.13;;;;;;;-0.28;46.56;96448.28;5010174;28;20830;-64
2022/01/14 00:50:29;;;;;;;41.55;20.23;;;;;;;-0.34;46.61;96478.97;5010882;28;20620;-64
2022/01/14 00:52:56;;;;;;;40.65;17.48;;;;;;;-0.81;47.28;96487.91;5010031;28;20704;-64
2022/01/14 00:55:28;;;;;;;219.27;72.13;;;;;;;-0.64;46.80;96497.41;5010625;28;20205;-68
2022/01/14 01:00:34;;;;;;;42.30;19.65;;;;;;;-0.25;45.80;96478.88;5010214;28;20202;-63
2022/01/14 01:03:03;;;;;;;34.70;15.77;;;;;;;-0.40;46.25;96469.28;5011071;28;20257;-64
2022/01/14 01:05:30;;;;;;;40.55;18.70;;;;;;;-0.02;45.40;96469.69;5010876;28;20198;-64
2022/01/14 01:08:09;;;;;;;41.72;18.67;;;;;;;-0.59;46.47;96480.56;5010176;28;20212;-65
2022/01/14 01:10:46;;;;;;;39.70;19.23;;;;;;;-0.51;46.57;96474.66;5009245;28;20181;-63
2022/01/14 01:13:50;;;;;;;35.88;16.15;;;;;;;-0.41;46.35;96467.66;5009720;28;20216;-64
2022/01/14 01:16:07;;;;;;;42.92;19.50;;;;;;;-0.09;46.09;96462.72;5009355;28;20799;-64
2022/01/14 01:18:34;;;;;;;35.63;18.02;;;;;;;0.08;45.68;96467.00;5009519;28;20205;-63
2022/01/14 01:21:01;;;;;;;38.55;18.60;;;;;;;-0.08;45.62;96454.03;5009750;28;20209;-64
2022/01/14 01:23:28;;;;;;;38.53;18.55;;;;;;;-0.30;45.97;96436.50;5009538;28;20291;-63
2022/01/14 01:26:11;;;;;;;40.58;19.20;;;;;;;0.07;45.63;96442.22;5025001;28;20285;-63
2022/01/14 01:28:52;;;;;;;37.03;17.45;;;;;;;-0.15;45.76;96437.56;5009242;28;20244;-63
2022/01/14 01:31:35;;;;;;;160.20;57.25;;;;;;;-0.09;45.58;96436.94;5010097;28;20273;-63
2022/01/14 01:34:09;;;;;;;73.35;28.00;;;;;;;0.28;45.02;96440.06;5009438;28;20214;-62
2022/01/14 01:36:37;;;;;;;43.25;20.75;;;;;;;-0.10;44.96;96445.66;5010298;28;20216;-62
2022/01/14 01:39:06;;;;;;;41.63;17.85;;;;;;;0.07;45.10;96436.25;5009300;28;20260;-63
2022/01/14 01:41:38;;;;;;;36.63;18.15;;;;;;;0.16;44.92;96441.28;5009896;28;20205;-62
2022/01/14 01:44:09;;;;;;;34.95;18.30;;;;;;;-0.22;45.38;96431.41;5009046;28;20198;-62
2022/01/14 01:46:40;;;;;;;38.08;18.08;;;;;;;0.11;44.90;96432.41;5010035;28;20205;-63
2022/01/14 01:49:09;;;;;;;37.22;18.38;;;;;;;0.49;44.63;96419.84;5008843;28;20208;-62
2022/01/14 01:51:36;;;;;;;42.42;19.77;;;;;;;0.31;43.96;96416.53;5009041;28;20256;-64
2022/01/14 01:54:03;;;;;;;37.47;17.48;;;;;;;-0.09;44.94;96434.38;5009125;28;20187;-63
2022/01/14 01:56:30;;;;;;;40.08;19.17;;;;;;;0.23;44.49;96426.00;5009353;28;20296;-64
2022/01/14 01:58:58;;;;;;;36.08;18.40;;;;;;;0.11;44.69;96412.56;5008811;28;20288;-62
2022/01/14 02:01:25;;;;;;;31.63;15.23;;;;;;;-0.74;46.00;96414.28;5009429;28;20217;-63
2022/01/14 02:03:54;;;;;;;37.92;18.63;;;;;;;-0.74;46.63;96414.28;5008876;28;20624;-62
2022/01/14 02:06:22;;;;;;;38.42;19.15;;;;;;;0.06;45.15;96399.34;5008954;28;20193;-63
2022/01/14 02:08:49;;;;;;;39.13;19.00;;;;;;;0.20;44.68;96393.59;5008932;28;20206;-63
2022/01/14 02:11:17;;;;;;;60.55;25.13;;;;;;;-0.13;45.04;96391.88;5009311;28;20267;-64
2022/01/14 02:13:45;;;;;;;58.35;23.92;;;;;;;0.02;44.95;96387.72;5008447;28;20221;-63
2022/01/14 02:26:56;;;;;;;34.85;17.23;;;;;;;0.45;44.31;96372.13;5016062;28;20698;-63
2022/01/14 02:29:41;;;;;;;37.03;17.58;;;;;;;0.78;43.16;96365.25;5015661;28;20214;-63
2022/01/14 02:32:09;;;;;;;38.20;18.42;;;;;;;0.81;43.16;96355.41;5015967;28;20193;-63
2022/01/14 02:34:38;;;;;;;36.15;17.65;;;;;;;0.82;43.34;96364.75;5014949;28;20696;-63
2022/01/14 02:37:06;;;;;;;36.20;17.48;;;;;;;-0.24;44.48;96366.38;5015829;28;20574;-63
2022/01/14 02:39:33;;;;;;;41.55;18.85;;;;;;;-0.54;45.27;96359.09;5015398;28;20198;-64
2022/01/14 02:42:02;;;;;;;38.30;17.95;;;;;;;-0.27;45.40;96367.47;5015527;28;20229;-63
2022/01/14 02:44:31;;;;;;;36.05;16.95;;;;;;;0.04;44.33;96367.00;5014971;28;20202;-63
2022/01/14 02:47:04;;;;;;;165.50;56.38;;;;;;;-0.18;44.05;96355.44;5015660;28;20197;-64
2022/01/14 02:49:33;;;;;;;45.92;20.52;;;;;;;-0.63;45.14;96349.72;5014945;28;20301;-62
2022/01/14 02:52:04;;;;;;;32.35;14.90;;;;;;;-0.94;45.59;96351.91;5016211;28;20696;-63
2022/01/14 02:55:01;;;;;;;35.72;17.35;;;;;;;0.03;44.45;96353.28;5015610;28;20209;-63
2022/01/14 02:57:29;;;;;;;33.35;16.55;;;;;;;-1.04;44.96;96250.88;5015439;28;20214;-63
2022/01/14 02:59:58;;;;;;;36.60;17.42;;;;;;;-0.68;45.67;96350.16;5014867;28;20247;-63
2022/01/14 03:02:27;;;;;;;42.35;18.05;;;;;;;-0.73;45.86;96338.72;5015830;28;20222;-65
2022/01/14 03:04:55;;;;;;;35.35;17.25;;;;;;;-0.63;45.42;96345.38;5014973;28;20193;-62
2022/01/14 03:07:22;;;;;;;42.53;17.35;;;;;;;-0.59;45.44;96340.72;5016067;28;20239;-63
2022/01/14 03:09:49;;;;;;;37.45;17.80;;;;;;;-0.15;44.76;96339.69;5015438;28;20294;-63
2022/01/14 03:12:16;;;;;;;36.05;17.17;;;;;;;-0.10;44.87;96327.13;5015661;28;20197;-65
2022/01/14 03:14:43;;;;;;;34.78;17.15;;;;;;;-0.57;45.50;96333.66;5014661;28;20608;-63
2022/01/14 03:17:10;;;;;;;34.03;17.75;;;;;;;0.02;44.85;96310.44;5015701;28;20202;-63
2022/01/14 03:19:37;;;;;;;35.08;16.65;;;;;;;-0.32;45.13;96320.78;5014605;28;20207;-63
2022/01/14 03:22:17;;;;;;;36.75;16.98;;;;;;;-0.28;44.86;96313.53;5015368;28;20252;-64
2022/01/14 03:27:13;;;;;;;583.13;192.30;;;;;;;-0.54;45.17;96299.88;5015490;28;20210;-68
2022/01/14 03:29:41;;;;;;;55.45;23.73;;;;;;;-0.50;45.20;96293.47;5015016;28;20645;-62
2022/01/14 03:32:08;;;;;;;41.88;18.27;;;;;;;0.65;43.52;96298.66;5015289;28;20275;-63
2022/01/14 03:34:36;;;;;;;33.85;16.95;;;;;;;0.81;43.17;96293.50;5011722;28;20207;-63
2022/01/14 03:37:03;;;;;;;36.40;18.02;;;;;;;0.52;43.47;96300.09;5011986;28;20189;-63
2022/01/14 03:39:30;;;;;;;34.85;16.63;;;;;;;0.84;42.22;96288.00;5011639;28;20201;-63
2022/01/14 03:41:57;;;;;;;36.47;16.52;;;;;;;0.51;42.79;96277.84;5012280;28;20202;-63
2022/01/14 03:44:24;;;;;;;33.08;15.35;;;;;;;0.79;41.99;96274.78;5011099;28;20233;-62
2022/01/14 03:46:51;;;;;;;39.60;18.65;;;;;;;1.13;41.84;96268.66;5011885;28;20208;-62
2022/01/14 03:49:18;;;;;;;36.45;16.35;;;;;;;1.01;41.35;96268.97;5011091;28;20209;-64
2022/01/14 03:51:45;;;;;;;29.60;14.90;;;;;;;0.95;41.12;96274.78;5012392;28;20283;-67
2022/01/14 03:54:12;;;;;;;32.00;15.43;;;;;;;0.79;42.02;96269.63;5011522;28;20202;-63
2022/01/14 03:56:39;;;;;;;33.13;14.98;;;;;;;0.31;42.25;96259.28;5011539;28;20622;-64
2022/01/14 03:59:06;;;;;;;28.30;14.55;;;;;;;0.55;41.51;96287.66;5010972;28;20249;-63
2022/01/14 04:01:33;;;;;;;37.35;18.25;;;;;;;0.43;41.21;96272.66;5011417;28;20197;-62
2022/01/14 04:04:00;;;;;;;98.43;36.00;;;;;;;0.55;42.14;96281.69;5010652;28;20241;-63
2022/01/14 04:06:28;;;;;;;38.58;18.13;;;;;;;0.82;41.20;96279.63;5011560;28;20296;-63
2022/01/14 04:08:54;;;;;;;34.13;16.88;;;;;;;0.95;40.65;96290.25;5010846;28;20687;-62
2022/01/14 04:11:22;;;;;;;33.30;16.42;;;;;;;0.83;41.34;96281.25;5011913;28;20208;-63
2022/01/14 04:13:55;;;;;;;33.78;16.13;;;;;;;0.80;41.81;96263.50;5025868;28;20553;-63
2022/01/14 04:16:24;;;;;;;31.90;15.98;;;;;;;1.06;41.42;96265.09;5010858;28;21053;-63
2022/01/14 04:18:52;;;;;;;32.45;16.52;;;;;;;0.42;41.69;96260.75;5010745;28;20677;-64
2022/01/14 04:21:20;;;;;;;36.65;15.52;;;;;;;0.53;41.36;96258.66;5011372;28;20582;-64
2022/01/14 04:23:47;;;;;;;31.00;14.90;;;;;;;0.76;40.57;96254.50;5010825;28;20214;-63
2022/01/14 04:26:15;;;;;;;31.02;15.98;;;;;;;0.54;40.71;96260.28;5011088;28;20594;-63
2022/01/14 04:28:41;;;;;;;35.22;17.17;;;;;;;0.16;41.60;96265.22;5011108;28;20256;-63
2022/01/14 04:31:09;;;;;;;37.30;16.75;;;;;;;0.10;41.74;96269.22;5011224;28;20597;-63
2022/01/14 04:33:37;;;;;;;35.35;16.88;;;;;;;0.15;42.08;96272.13;5010179;28;20213;-63
2022/01/14 04:36:04;;;;;;;35.20;17.42;;;;;;;0.08;42.40;96265.19;5010920;28;20182;-63
2022/01/14 04:38:32;;;;;;;35.17;16.98;;;;;;;-0.19;42.97;96261.91;5010678;28;20197;-63
2022/01/14 04:41:00;;;;;;;35.88;17.83;;;;;;;-0.23;42.96;96259.78;5010683;28;20200;-61
2022/01/14 04:43:29;;;;;;;45.30;20.20;;;;;;;0.21;42.02;96253.47;5010932;28;20233;-63
2022/01/14 04:48:30;;;;;;;36.50;17.92;;;;;;;0.11;42.65;96262.31;5010709;28;20202;-63
2022/01/14 04:50:58;;;;;;;33.55;16.83;;;;;;;0.03;42.33;96260.53;5010329;28;20193;-64
2022/01/14 04:53:26;;;;;;;42.78;18.25;;;;;;;0.11;42.53;96246.84;5010479;28;20201;-63
2022/01/14 04:55:55;;;;;;;38.92;18.23;;;;;;;0.17;42.14;96254.75;5010575;28;20285;-63
2022/01/14 04:58:23;;;;;;;35.45;16.92;;;;;;;0.31;41.84;96261.06;5010350;28;20280;-63
2022/01/14 05:00:51;;;;;;;30.98;16.38;;;;;;;0.16;42.09;96250.56;5006250;28;20214;-64
2022/01/14 05:03:19;;;;;;;35.85;17.13;;;;;;;0.27;42.03;96247.69;4990596;28;20230;-62
2022/01/14 05:05:49;;;;;;;34.00;16.42;;;;;;;0.28;42.31;96244.13;4991348;28;20213;-63
2022/01/14 05:08:24;;;;;;;35.15;17.10;;;;;;;0.10;42.10;96246.03;4990488;28;20214;-63
2022/01/14 05:13:25;;;;;;;35.10;15.82;;;;;;;0.08;42.55;96232.50;5005273;28;20652;-63
2022/01/14 05:15:53;;;;;;;36.22;17.35;;;;;;;-0.06;42.30;96204.78;4990494;28;20725;-63
2022/01/14 05:18:23;;;;;;;60.30;26.15;;;;;;;0.86;41.39;96233.66;4989995;28;20277;-62
2022/01/14 05:20:52;;;;;;;52.85;22.88;;;;;;;0.46;42.00;96223.34;4994358;28;20202;-62
2022/01/14 05:23:19;;;;;;;40.47;21.35;;;;;;;0.37;42.19;96243.19;5010147;28;20287;-62
2022/01/14 05:25:46;;;;;;;42.70;18.17;;;;;;;0.41;42.53;96239.31;5010940;28;20204;-63
2022/01/14 05:28:13;;;;;;;37.47;18.00;;;;;;;0.63;41.43;96238.69;5010844;28;20182;-64
2022/01/14 05:30:43;;;;;;;36.22;17.67;;;;;;;0.90;41.40;96242.69;5009902;28;20643;-63
2022/01/14 05:33:11;;;;;;;34.25;17.20;;;;;;;0.87;41.52;96246.41;5009684;28;20731;-63
2022/01/14 05:35:39;;;;;;;36.90;17.23;;;;;;;0.70;41.82;96234.50;5010158;28;20237;-62
2022/01/14 05:38:06;;;;;;;33.88;16.95;;;;;;;0.29;42.12;96245.75;5000746;28;20665;-62
2022/01/14 05:40:33;;;;;;;37.20;17.17;;;;;;;0.14;42.74;96239.63;4991921;28;20217;-63
2022/01/14 05:43:00;;;;;;;34.10;17.50;;;;;;;0.55;42.55;96236.09;4989695;28;20953;-63
2022/01/14 05:45:27;;;;;;;34.50;16.77;;;;;;;-0.01;42.97;96202.53;4990461;28;20191;-62
2022/01/14 05:47:54;;;;;;;31.50;15.02;;;;;;;0.25;42.83;96208.38;4989404;28;20202;-64
2022/01/14 05:50:23;;;;;;;32.50;16.27;;;;;;;0.70;42.15;96224.16;4990542;28;20202;-63
2022/01/14 05:52:51;;;;;;;34.53;16.20;;;;;;;0.92;41.40;96226.09;4990045;28;20743;-62
2022/01/14 05:55:21;;;;;;;125.57;48.50;;;;;;;1.56;42.39;96213.97;4989214;28;20210;-64
2022/01/14 05:57:48;;;;;;;68.60;27.20;;;;;;;1.68;41.01;96230.72;4989333;28;20569;-65
2022/01/14 06:00:20;;;;;;;46.85;23.42;;;;;;;1.89;42.75;96212.84;4990468;28;20210;-61
2022/01/14 06:02:50;;;;;;;39.65;18.25;;;;;;;1.47;41.68;96225.31;4990011;28;20216;-61
2022/01/14 06:05:19;;;;;;;28.83;14.95;;;;;;;0.22;43.12;96224.13;4990044;28;20266;-62
2022/01/14 06:07:46;;;;;;;34.03;15.82;;;;;;;0.94;42.54;96231.88;4989541;28;20210;-63
2022/01/14 06:10:13;;;;;;;31.92;14.98;;;;;;;0.65;43.03;96216.13;4989736;28;20210;-61
2022/01/14 06:12:40;;;;;;;33.75;15.98;;;;;;;0.38;43.12;96219.03;4989333;28;20626;-61
2022/01/14 06:15:08;;;;;;;29.92;15.70;;;;;;;0.60;43.22;96207.25;4989793;28;20227;-62
2022/01/14 06:17:34;;;;;;;29.35;15.32;;;;;;;-0.38;44.72;96217.56;4990286;28;20194;-62
2022/01/14 06:20:03;;;;;;;37.75;15.18;;;;;;;-0.08;44.56;96196.41;4989072;28;20202;-62
2022/01/14 06:22:30;;;;;;;27.73;14.70;;;;;;;-0.24;45.00;96215.19;4990091;28;20225;-61
2022/01/14 06:24:58;;;;;;;27.92;14.90;;;;;;;0.04;44.54;96220.91;4989077;28;20226;-61
2022/01/14 06:27:26;;;;;;;37.83;16.25;;;;;;;0.44;44.08;96213.19;4989197;28;20209;-60
2022/01/14 06:29:53;;;;;;;31.30;15.60;;;;;;;0.39;44.08;96210.31;4988718;28;20218;-62
2022/01/14 06:32:19;;;;;;;34.90;16.58;;;;;;;0.59;43.60;96206.44;4989413;28;20198;-62
2022/01/14 06:34:46;;;;;;;89.15;33.00;;;;;;;0.91;42.55;96205.59;4987624;28;20209;-62
2022/01/14 06:37:16;;;;;;;47.03;21.15;;;;;;;0.82;43.63;96196.28;4989863;28;20205;-62
2022/01/14 06:39:42;;;;;;;31.00;16.65;;;;;;;0.90;43.03;96197.06;4988873;28;20183;-61
2022/01/14 06:42:09;;;;;;;28.45;14.48;;;;;;;1.20;42.70;96197.31;4989996;28;20202;-62
2022/01/14 06:44:36;;;;;;;34.15;16.85;;;;;;;1.17;42.82;96200.22;5004223;28;20226;-61
2022/01/14 06:47:04;;;;;;;33.92;16.80;;;;;;;1.20;43.10;96194.72;4989701;28;20228;-61
2022/01/14 06:49:31;;;;;;;34.88;17.15;;;;;;;1.21;43.24;96196.31;4989375;28;20217;-63
2022/01/14 06:51:59;;;;;;;34.78;15.85;;;;;;;1.10;43.26;96199.25;4989787;28;20226;-63
2022/01/14 06:54:25;;;;;;;38.47;16.92;;;;;;;1.03;43.79;96189.63;4989110;28;20195;-64
2022/01/14 06:56:52;;;;;;;30.80;16.40;;;;;;;1.17;43.64;96182.16;4989534;28;20209;-63
2022/01/14 06:59:19;;;;;;;34.08;17.10;;;;;;;1.63;43.22;96181.31;4988768;28;20214;-61
2022/01/14 07:01:46;;;;;;;35.85;15.68;;;;;;;1.29;43.76;96183.41;4989009;28;20210;-61
2022/01/14 07:04:13;;;;;;;40.55;16.80;;;;;;;1.27;44.25;96185.34;4989070;28;20230;-62
2022/01/14 07:06:40;;;;;;;45.13;24.00;;;;;;;1.48;44.21;96183.81;4989629;28;20202;-62
2022/01/14 07:09:07;;;;;;;36.67;16.77;;;;;;;0.99;45.04;96172.84;4990695;28;20213;-61
2022/01/14 07:11:36;;;;;;;35.00;16.33;;;;;;;0.90;45.89;96163.50;4993382;28;20198;-62
2022/01/14 07:14:05;;;;;;;30.73;15.70;;;;;;;1.04;45.82;96149.91;4993663;28;20256;-62
2022/01/14 07:16:33;;;;;;;33.75;15.60;;;;;;;1.20;45.71;96148.25;4993523;28;20676;-61
2022/01/14 07:19:01;;;;;;;31.70;15.02;;;;;;;1.38;45.51;96146.25;4993592;28;20206;-62
2022/01/14 07:21:28;;;;;;;40.20;16.20;;;;;;;1.62;45.01;96148.72;4993987;28;20207;-62
2022/01/14 07:23:55;;;;;;;30.25;15.82;;;;;;;1.72;45.64;96154.47;4993193;28;20245;-61
2022/01/14 07:26:22;;;;;;;29.50;15.55;;;;;;;1.57;45.19;96148.44;4993997;28;20199;-61
2022/01/14 07:28:49;;;;;;;28.65;15.02;;;;;;;1.68;45.76;96153.22;4993340;28;20202;-61
2022/01/14 07:31:16;;;;;;;30.80;15.05;;;;;;;1.84;45.74;96151.31;4994397;28;20288;-61
2022/01/14 07:33:43;;;;;;;36.25;15.73;;;;;;;1.71;46.35;96161.44;4994230;28;20221;-62
2022/01/14 07:36:09;;;;;;;31.95;16.35;;;;;;;1.70;46.17;96152.06;4993638;28;20565;-61
2022/01/14 07:38:37;;;;;;;33.72;17.60;;;;;;;1.52;46.53;96163.59;4993804;28;20253;-62
2022/01/14 07:41:04;;;;;;;32.80;17.00;;;;;;;1.62;46.56;96146.94;4994831;28;20190;-62
2022/01/14 07:43:31;;;;;;;34.60;17.83;;;;;;;1.78;46.43;96146.03;4993986;28;20258;-62
2022/01/14 07:45:58;;;;;;;33.05;17.27;;;;;;;1.56;46.62;96149.38;4992908;28;20525;-63
2022/01/14 07:48:25;;;;;;;38.10;17.92;;;;;;;1.69;46.79;96141.91;4992227;28;20186;-62
2022/01/14 07:50:52;;;;;;;39.15;18.20;;;;;;;1.61;46.45;96135.00;4992220;28;20198;-63
2022/01/14 07:53:19;;;;;;;37.65;18.42;;;;;;;1.94;45.76;96138.19;4992198;28;20190;-65
2022/01/14 07:55:47;;;;;;;36.85;18.23;;;;;;;1.97;45.96;96123.13;4992578;28;20207;-65
2022/01/14 07:58:15;;;;;;;36.65;19.15;;;;;;;1.90;46.43;96127.38;4991962;28;20202;-64
2022/01/14 08:00:42;;;;;;;45.65;19.17;;;;;;;1.67;45.73;96074.09;4992299;28;20675;-65
2022/01/14 08:03:09;;;;;;;40.13;18.25;;;;;;;1.78;45.57;96126.19;4992331;28;20199;-63
2022/01/14 08:05:36;;;;;;;38.47;19.73;;;;;;;1.95;45.85;96116.53;4992221;28;20234;-64
2022/01/14 08:08:04;;;;;;;40.55;18.85;;;;;;;2.10;45.68;96108.84;4991489;28;20311;-64
2022/01/14 08:10:32;;;;;;;50.03;24.08;;;;;;;1.87;46.30;96107.06;4991894;28;20292;-64
2022/01/14 08:12:59;;;;;;;45.53;20.75;;;;;;;2.25;45.86;96118.22;4991652;28;20206;-65
2022/01/14 08:15:30;;;;;;;36.58;18.95;;;;;;;2.26;45.45;96106.94;4991799;28;20256;-65
2022/01/14 08:18:00;;;;;;;43.88;18.60;;;;;;;2.29;46.12;96116.91;4991243;28;20254;-64
2022/01/14 08:20:28;;;;;;;38.33;18.90;;;;;;;2.69;45.72;96116.53;4991689;28;20191;-64
2022/01/14 08:22:55;;;;;;;33.53;17.80;;;;;;;2.64;45.16;96100.75;4991511;28;20194;-64
2022/01/14 08:25:22;;;;;;;34.63;18.00;;;;;;;2.83;45.52;96100.22;4991241;28;20848;-64
2022/01/14 08:27:49;;;;;;;34.75;18.48;;;;;;;3.12;45.16;96094.22;4991577;28;20195;-65
2022/01/14 08:30:16;;;;;;;39.90;18.27;;;;;;;2.99;45.21;96089.66;4991851;28;20194;-64
2022/01/14 08:32:42;;;;;;;36.67;18.42;;;;;;;2.91;45.58;96094.97;4991545;28;20206;-65
2022/01/14 08:35:10;;;;;;;42.03;18.58;;;;;;;2.47;46.63;96091.53;4992054;28;20302;-64
2022/01/14 08:37:38;;;;;;;34.28;18.92;;;;;;;2.68;46.69;96086.44;4992676;28;20193;-64
2022/01/14 08:40:07;;;;;;;43.78;19.25;;;;;;;2.60;46.60;96067.63;4991744;28;20210;-66
2022/01/14 08:42:35;;;;;;;43.40;19.13;;;;;;;2.57;47.03;96081.75;4991667;28;20696;-65
2022/01/14 08:45:05;;;;;;;35.42;18.83;;;;;;;2.48;46.70;96077.59;4990940;28;20234;-63
2022/01/14 08:47:32;;;;;;;38.63;18.90;;;;;;;3.03;46.47;96069.41;4991898;28;20206;-65
2022/01/14 08:50:00;;;;;;;36.13;19.23;;;;;;;2.64;46.09;96054.19;4990859;28;20213;-65
2022/01/14 08:52:27;;;;;;;40.67;18.95;;;;;;;2.79;46.69;96077.47;4991181;28;20202;-65
2022/01/14 08:54:54;;;;;;;40.22;19.52;;;;;;;3.20;46.04;96065.63;4990859;28;20686;-65
2022/01/14 08:57:23;;;;;;;44.45;19.70;;;;;;;3.12;46.54;96062.34;4991410;28;20202;-64
2022/01/14 08:59:50;;;;;;;41.53;20.00;;;;;;;3.36;46.66;96054.28;4991177;28;20206;-65
2022/01/14 09:02:18;;;;;;;39.35;18.50;;;;;;;3.37;46.42;96055.88;4990973;28;20202;-64
2022/01/14 09:04:45;;;;;;;33.13;18.10;;;;;;;3.61;46.05;96058.13;4990528;28;20226;-65
2022/01/14 09:07:12;;;;;;;33.63;16.95;;;;;;;3.39;46.10;96059.09;4990980;28;20674;-65
2022/01/14 09:09:38;;;;;;;33.80;18.70;;;;;;;3.89;45.33;96051.22;4990499;28;20590;-64
2022/01/14 09:12:07;;;;;;;34.15;18.52;;;;;;;4.06;45.10;96047.38;4991696;28;20681;-65
2022/01/14 09:14:34;;;;;;;34.85;17.70;;;;;;;3.99;45.20;96041.34;5006563;28;20319;-65
2022/01/14 09:17:02;;;;;;;61.15;27.52;;;;;;;3.77;45.70;96037.16;4991335;28;20202;-62
2022/01/14 09:19:29;;;;;;;43.38;20.23;;;;;;;3.37;46.48;96035.16;4990324;28;20689;-64
2022/01/14 09:21:56;;;;;;;33.05;17.38;;;;;;;3.29;47.13;96023.09;4990466;28;20202;-64
2022/01/14 09:24:43;;;;;;;29.80;16.23;;;;;;;3.37;47.16;96029.97;4991285;28;20272;-65
2022/01/14 09:27:11;;;;;;;27.88;16.42;;;;;;;4.21;46.46;96024.78;4990645;28;20198;-64
2022/01/14 09:29:39;;;;;;;26.25;14.30;;;;;;;3.86;47.19;96020.47;4989807;28;20214;-65
2022/01/14 09:32:08;;;;;;;28.20;15.50;;;;;;;4.42;46.73;96001.34;4989620;28;20198;-65
2022/01/14 09:34:37;;;;;;;29.15;15.70;;;;;;;4.53;47.00;95993.03;4989850;28;20635;-66
2022/01/14 09:37:04;;;;;;;25.40;14.07;;;;;;;4.37;47.02;95977.78;4989990;28;20281;-64
2022/01/14 09:39:32;;;;;;;26.45;14.18;;;;;;;4.40;47.45;95987.75;4990118;28;20651;-63
2022/01/14 09:42:01;;;;;;;31.23;15.00;;;;;;;4.47;47.03;95993.78;4990103;28;20203;-63
2022/01/14 09:44:28;;;;;;;24.83;11.77;;;;;;;4.41;47.95;95986.78;4990307;28;20609;-66
2022/01/14 09:46:55;;;;;;;18.48;10.73;;;;;;;4.28;48.41;95976.31;4989847;28;20194;-64
2022/01/14 09:49:22;;;;;;;16.83;8.73;;;;;;;4.18;49.08;95999.19;4989605;28;20210;-63
2022/01/14 09:51:50;;;;;;;122.45;54.75;;;;;;;4.56;49.08;95977.06;4990284;28;20191;-64
2022/01/14 09:54:17;;;;;;;63.75;25.65;;;;;;;4.81;47.65;95957.44;4991012;28;20214;-64
2022/01/14 09:56:45;;;;;;;20.63;10.73;;;;;;;4.65;48.53;95965.53;4991726;28;20293;-65
2022/01/14 09:59:12;;;;;;;15.57;8.35;;;;;;;4.96;48.10;95946.91;4989807;28;20233;-64
2022/01/14 10:01:42;;;;;;;15.23;7.18;;;;;;;4.86;48.39;95947.25;5004424;28;20266;-65
2022/01/14 10:04:15;;;;;;;17.20;7.65;;;;;;;5.27;48.07;95943.78;4989820;28;20753;-65
2022/01/14 10:06:56;;;;;;;17.25;9.75;;;;;;;5.40;47.04;95942.00;4990179;28;20205;-66
2022/01/14 10:09:27;;;;;;;20.00;12.02;;;;;;;5.56;46.59;95946.03;4990047;28;20198;-64
2022/01/14 10:12:20;;;;;;;20.45;11.23;;;;;;;5.53;46.76;95934.22;4989736;28;20187;-64
2022/01/14 10:14:56;;;;;;;19.75;11.02;;;;;;;5.31;47.04;95929.41;4989138;28;20234;-63
2022/01/14 10:17:24;;;;;;;13.07;6.82;;;;;;;4.44;49.31;95929.31;4989515;28;20202;-64
2022/01/14 10:19:52;;;;;;;12.80;6.63;;;;;;;4.56;49.70;95935.53;4989469;28;20222;-63
2022/01/14 10:22:24;;;;;;;17.60;8.70;;;;;;;5.39;48.42;95917.03;4989959;28;20294;-64
2022/01/14 10:25:09;;;;;;;17.45;8.32;;;;;;;4.56;50.03;95914.78;4989961;28;20225;-64
2022/01/14 10:27:39;;;;;;;17.17;8.15;;;;;;;5.01;49.22;95918.53;4991140;28;20202;-63
2022/01/14 10:30:11;;;;;;;16.77;9.02;;;;;;;5.23;49.09;95895.81;4989871;28;20216;-65
2022/01/14 10:32:41;;;;;;;18.88;9.30;;;;;;;5.57;47.89;95883.44;4989643;28;20302;-67
2022/01/14 10:35:14;;;;;;;17.77;9.75;;;;;;;5.76;47.49;95894.84;4990301;28;20190;-66
2022/01/14 10:37:44;;;;;;;16.85;8.35;;;;;;;5.11;49.21;95888.59;4989284;28;20198;-65
2022/01/14 10:40:17;;;;;;;17.05;9.68;;;;;;;5.65;48.21;95885.03;4989576;28;20206;-67
2022/01/14 10:42:45;;;;;;;15.98;8.90;;;;;;;5.75;48.25;95875.03;4989799;28;20692;-67
2022/01/14 10:45:25;;;;;;;17.55;9.52;;;;;;;5.48;48.77;95883.81;4993672;28;20226;-67
2022/01/14 10:47:57;;;;;;;12.63;7.50;;;;;;;5.66;48.35;95881.44;4993210;28;20228;-63
2022/01/14 10:50:45;;;;;;;13.48;8.18;;;;;;;5.92;47.63;95871.03;4993520;28;20210;-65
2022/01/14 10:53:22;;;;;;;16.02;7.70;;;;;;;6.11;47.05;95865.00;4993472;28;20654;-64
2022/01/14 10:55:51;;;;;;;9.50;5.45;;;;;;;5.97;47.30;95863.41;4993863;28;20256;-63
2022/01/14 10:58:29;;;;;;;11.90;7.38;;;;;;;5.42;48.37;95858.66;4992965;28;20214;-65
2022/01/14 11:01:18;;;;;;;14.27;6.07;;;;;;;5.79;47.78;95850.22;4993015;28;20256;-66
2022/01/14 11:03:52;;;;;;;12.30;7.65;;;;;;;5.93;47.39;95838.84;4992530;28;20278;-67
2022/01/14 11:06:23;;;;;;;12.68;6.90;;;;;;;5.92;47.50;95850.22;4992804;28;20590;-65
2022/01/14 11:09:00;;;;;;;12.55;7.47;;;;;;;6.35;46.77;95835.69;4992309;28;20225;-65
2022/01/14 11:11:29;;;;;;;12.63;7.57;;;;;;;6.80;46.05;95837.31;4992575;28;20202;-65
2022/01/14 11:13:56;;;;;;;12.93;7.43;;;;;;;6.35;46.52;95829.72;4992426;28;20190;-64
2022/01/14 11:16:24;;;;;;;11.63;6.03;;;;;;;6.25;46.65;95824.94;4993017;28;20262;-64
2022/01/14 11:18:56;;;;;;;12.60;6.40;;;;;;;6.34;46.35;95813.28;4992250;28;20201;-65
2022/01/14 11:24:23;;;;;;;13.32;6.72;;;;;;;6.75;45.18;95782.41;4992224;28;20194;-64
2022/01/14 11:26:55;;;;;;;13.40;6.63;;;;;;;6.57;45.62;95795.34;4992860;28;20670;-66
2022/01/14 11:29:23;;;;;;;10.30;6.15;;;;;;;6.89;44.94;95791.75;4992202;28;20728;-66
2022/01/14 11:32:03;;;;;;;11.02;7.28;;;;;;;7.08;44.73;95785.59;4992387;28;20237;-65
2022/01/14 11:34:30;;;;;;;70.43;31.58;;;;;;;7.24;44.54;95773.06;4992025;28;20233;-64
2022/01/14 11:37:03;;;;;;;14.60;7.32;;;;;;;7.03;44.46;95754.19;4992334;28;20201;-65
2022/01/14 11:39:34;;;;;;;12.90;6.85;;;;;;;7.26;44.64;95755.41;4992108;28;20217;-64
2022/01/14 11:42:04;;;;;;;14.63;7.97;;;;;;;7.49;44.10;95752.97;4992043;28;20694;-64
2022/01/14 11:44:54;;;;;;;14.43;7.53;;;;;;;7.99;43.07;95741.44;4992074;28;20207;-65
2022/01/14 11:47:21;;;;;;;12.95;8.15;;;;;;;7.97;43.64;95744.22;4992308;28;20610;-64
2022/01/14 11:49:48;;;;;;;19.02;9.10;;;;;;;8.30;42.21;95720.41;4992244;28;20195;-64
2022/01/14 11:52:35;;;;;;;13.82;8.43;;;;;;;8.62;42.00;95724.34;4992649;28;20581;-64
2022/01/14 11:55:04;;;;;;;18.85;8.15;;;;;;;8.94;41.07;95741.38;4991638;28;20226;-65
2022/01/14 11:57:52;;;;;;;12.35;7.78;;;;;;;9.65;40.24;95725.47;4991978;28;20213;-66
2022/01/14 12:00:25;;;;;;;14.68;7.65;;;;;;;10.40;38.28;95710.53;4992444;28;20243;-65
2022/01/14 12:03:07;;;;;;;15.52;7.88;;;;;;;10.30;38.30;95728.69;4991686;28;20693;-64
2022/01/14 12:05:37;;;;;;;14.90;8.40;;;;;;;11.19;37.05;95712.97;4991982;28;20736;-65
2022/01/14 12:08:05;;;;;;;13.02;8.35;;;;;;;11.20;36.61;95701.41;4991877;28;20518;-65
2022/01/14 12:10:35;;;;;;;205.32;85.75;;;;;;;11.23;35.60;95700.97;4992387;28;20202;-63